• Join FlightAware (Why Join?)
  • Login
  • US Flag 
03:44AM EDT


 

Airport Tracker/Info


-or-


 

Live Flight TrackerFlight Track Log ✈ CHQ6101 ✈ 21-Apr-2014 ✈ KLGA - KBGR

Flight Track Log - Related Links

Times and Time Zones

All times are in EDT time to prevent confusion due to time zone crossing. See the CHQ6101 flight status page for this flight to view local times or setup timezone preferences in your user account.

Time Position Orientation Groundspeed Altitude Reporting Facility
EDT Latitude Longitude Course Direction KTS MPH feet Rate Location/Type
01:56PM 40.7381 -73.8367 27° Northeast 168 193 27,000  Level Boston Center
01:57PM 40.7536 -73.7783 71° East 214 246 3,900 -10,200 Descending Boston Center
01:58PM 41.0387 -73.6510 28° Northeast  Level FlightAware Approximate
01:58PM 40.8178 -73.7392 25° Northeast 248 285 6,100  Level Boston Center
01:59PM 41.1321 -73.5842 28° Northeast  Level FlightAware Approximate
01:59PM 40.8853 -73.6967 25° Northeast 262 302 8,800  Level Boston Center
02:00PM 41.2209 -73.5068 33° Northeast  Level FlightAware Approximate
02:00PM 40.9531 -73.6528 26° Northeast 269 310 10,900  Level Boston Center
02:01PM 41.3126 -73.4360 27° Northeast  Level FlightAware Approximate
02:01PM 41.0450 -73.5931 26° Northeast 301 346 13,100  Level Boston Center
02:02PM 41.1244 -73.5431 25° Northeast 312 359 14,900 1,800 Climbing Boston Center
02:03PM 41.2122 -73.4869 26° Northeast 325 374 16,800 1,680 Climbing Boston Center
02:04PM 41.2961 -73.4325 26° Northeast 330 380 18,400 1,560 Climbing Boston Center
02:05PM 41.3764 -73.3819 25° Northeast 333 383 20,100 1,500 Climbing Boston Center
02:06PM 41.4672 -73.3475 16° North 343 395 21,500 1,140 Climbing Boston Center
02:07PM 41.5758 -73.3478 360° North 360 414 22,500 1,020 Climbing Boston Center
02:08PM 41.6814 -73.3458 North 376 433 23,600 1,020 Climbing Boston Center
02:09PM 41.7894 -73.3461 360° North 384 442 24,600 900 Climbing Boston Center
02:10PM 41.8981 -73.3461 360° North 387 445 25,500 900 Climbing Boston Center
02:11PM 42.0072 -73.3464 360° North 390 449 26,500 720 Climbing Boston Center
02:12PM 42.1111 -73.2961 20° North 409 471 27,000 240 Climbing Boston Center
02:13PM 42.1950 -73.1814 45° Northeast 429 494 27,000  Level Boston Center
02:14PM 42.2942 -73.0275 49° Northeast 454 522 27,000  Level Boston Center
02:15PM 42.3728 -72.9042 49° Northeast 458 527 27,000  Level Boston Center
02:16PM 42.4575 -72.7714 49° Northeast 463 533 27,000  Level Boston Center
02:17PM 42.5414 -72.6389 49° Northeast 462 532 27,000  Level Boston Center
02:18PM 42.6342 -72.4919 49° Northeast 470 541 27,000  Level Boston Center
02:19PM 42.7203 -72.3575 49° Northeast 472 543 27,000  Level Boston Center
02:20PM 42.8131 -72.2075 50° Northeast 473 544 27,000  Level Boston Center
02:21PM 42.8978 -72.0717 50° Northeast 474 545 27,000  Level Boston Center
02:22PM 42.9831 -71.9336 50° Northeast 475 547 27,000  Level Boston Center
02:23PM 43.0678 -71.7953 50° Northeast 476 548 27,000  Level Boston Center
02:24PM 43.1536 -71.6564 50° Northeast 477 549 27,000  Level Boston Center
02:25PM 43.2394 -71.5181 50° Northeast 477 549 27,000  Level Boston Center
02:26PM 43.3242 -71.3789 50° Northeast 477 549 27,000  Level Boston Center
02:27PM 43.4250 -71.2106 50° Northeast 477 549 27,000  Level Boston Center
02:28PM 43.5100 -71.0700 50° Northeast 477 549 27,000  Level Boston Center
02:29PM 43.5939 -70.9289 51° Northeast 477 549 27,000  Level Boston Center
02:30PM 43.6714 -70.7994 50° Northeast 477 549 27,000 -360 Level Boston Center
02:32PM 43.7558 -70.6569 51° Northeast 477 549 26,300 -1,200 Descending Boston Center
02:33PM 43.8550 -70.4897 51° Northeast 468 539 24,600 -1,620 Descending Boston Center
02:34PM 43.9356 -70.3539 50° Northeast 457 526 23,100 -1,500 Descending Boston Center
02:35PM 44.0158 -70.2181 51° Northeast 456 525 21,600 -1,500 Descending Boston Center
02:36PM 44.0964 -70.0833 50° Northeast 454 522 20,100 -1,500 Descending Boston Center
02:37PM 44.1756 -69.9431 52° Northeast 449 517 18,600 -1,620 Descending Boston Center
02:38PM 44.2494 -69.8144 51° Northeast 424 488 16,900 -2,040 Descending Boston Center
02:39PM 44.3247 -69.6844 51° Northeast 400 460 14,500 -2,100 Descending Boston Center
02:40PM 44.3925 -69.5886 45° Northeast 392 451 12,600 -1,740 Descending Boston Center
02:41PM 44.4653 -69.4950 43° Northeast 367 422 11,000 -1,560 Descending Boston Center
02:42PM 44.5269 -69.4156 43° Northeast 315 362 9,500 -1,860 Descending Boston Center
02:43PM 44.5967 -69.3253 43° Northeast 291 335 7,200 -2,100 Descending Boston Center
02:44PM 44.6519 -69.2506 44° Northeast 283 326 5,300 -1,860 Descending Boston Center
02:45PM 44.7081 -69.1775 43° Northeast 281 323 3,500 -1,140 Descending Boston Center
02:46PM 44.7631 -69.1039 44° Northeast 277 319 3,000 -300 Descending Boston Center
02:47PM 44.8178 -69.0308 43° Northeast 274 315 3,000 -360 Level Boston Center
02:48PM 44.8672 -68.9625 44° Northeast 254 292 2,300 -780 Descending Boston Center
02:49PM 44.8556 -68.8978 104° East 199 229 1,500 -900 Descending Boston Center
02:50PM 44.8286 -68.8592 135° Southeast 160 184 500 -660 Descending Boston Center
02:51PM 44.7978 -68.8167 136° Southeast 151 174 200 -300 Descending Boston Center